createdAt,value
2023-01-22T00:02:24.125Z,84.41
2023-01-22T00:05:29.250Z,83.20
2023-01-22T00:08:33.537Z,83.39
2023-01-22T00:11:37.200Z,83.30
2023-01-22T00:14:42.620Z,83.17
2023-01-22T00:17:46.346Z,82.92
2023-01-22T00:20:52.685Z,83.03
2023-01-22T00:23:56.297Z,83.76
2023-01-22T00:26:59.948Z,83.00
2023-01-22T00:30:03.616Z,82.91
2023-01-22T00:33:08.153Z,83.26
2023-01-22T00:36:15.853Z,83.26
2023-01-22T00:39:19.557Z,83.94
2023-01-22T00:42:23.761Z,84.58
2023-01-22T00:45:27.291Z,84.26
2023-01-22T00:48:30.836Z,85.76
2023-01-22T00:51:36.963Z,84.89
2023-01-22T00:54:40.630Z,85.98
2023-01-22T00:57:44.332Z,85.75
2023-01-22T01:00:47.967Z,84.68
2023-01-22T01:03:51.648Z,84.33
2023-01-22T01:06:56.742Z,84.01
2023-01-22T01:10:00.253Z,85.73
2023-01-22T01:13:04.580Z,84.80
2023-01-22T01:16:09.840Z,84.87
2023-01-22T01:19:14.193Z,84.23
2023-01-22T01:22:19.134Z,84.54
2023-01-22T01:25:22.601Z,84.65
2023-01-22T01:28:26.201Z,84.10
2023-01-22T01:31:29.993Z,84.31
2023-01-22T01:34:33.667Z,84.19
2023-01-22T01:37:40.559Z,84.47
2023-01-22T01:40:44.863Z,85.16
2023-01-22T01:43:48.962Z,84.86
2023-01-22T01:46:55.868Z,84.87
2023-01-22T01:49:59.412Z,85.72
2023-01-22T01:53:05.282Z,84.98
2023-01-22T01:56:14.072Z,85.25
2023-01-22T01:59:21.309Z,84.83
2023-01-22T02:02:26.546Z,84.72
2023-01-22T02:05:38.996Z,85.89
2023-01-22T02:08:48.566Z,85.00
2023-01-22T02:11:53.478Z,85.72
2023-01-22T02:14:57.394Z,85.68
2023-01-22T02:18:00.990Z,84.98
2023-01-22T02:21:21.460Z,87.50
2023-01-22T02:24:25.560Z,86.62
2023-01-22T02:27:29.344Z,87.19
2023-01-22T02:30:32.889Z,89.04
2023-01-22T02:33:36.482Z,89.08
2023-01-22T02:36:41.927Z,89.45
2023-01-22T02:39:45.577Z,89.57
2023-01-22T02:42:49.213Z,87.75
2023-01-22T02:45:52.947Z,88.25
2023-01-22T02:48:56.814Z,87.84
2023-01-22T02:52:01.918Z,87.62
2023-01-22T02:55:07.831Z,88.57
2023-01-22T02:58:11.377Z,88.61
2023-01-22T03:01:20.712Z,87.94
2023-01-22T03:04:27.434Z,88.13
2023-01-22T03:07:42.326Z,87.21
2023-01-22T03:10:46.592Z,90.26
2023-01-22T03:14:07.589Z,89.49
2023-01-22T03:17:28.853Z,89.86
2023-01-22T03:20:49.907Z,88.75
2023-01-22T03:23:56.818Z,90.42
2023-01-22T03:27:00.424Z,90.05
2023-01-22T03:30:08.543Z,90.23
2023-01-22T03:33:12.211Z,88.46
2023-01-22T03:36:17.082Z,89.52
2023-01-22T03:39:27.323Z,88.83
2023-01-22T03:42:30.957Z,88.44
2023-01-22T03:45:34.938Z,88.17
2023-01-22T03:48:40.856Z,89.77
2023-01-22T03:51:45.762Z,90.38
2023-01-22T03:54:50.831Z,89.82
2023-01-22T03:57:54.499Z,90.09
2023-01-22T04:00:58.887Z,89.44
2023-01-22T04:04:04.989Z,89.64
2023-01-22T04:07:09.424Z,89.67
2023-01-22T04:10:14.650Z,89.31
2023-01-22T04:13:18.378Z,90.59
2023-01-22T04:16:24.526Z,89.52
2023-01-22T04:20:03.266Z,89.87
2023-01-22T04:23:33.089Z,90.35
2023-01-22T04:26:39.961Z,89.03
2023-01-22T04:29:43.746Z,90.20
2023-01-22T04:32:47.401Z,91.00
2023-01-22T04:36:07.424Z,92.14
2023-01-22T04:39:11.038Z,94.84
2023-01-22T04:42:16.893Z,91.85
2023-01-22T04:45:20.459Z,91.10
2023-01-22T04:48:24.157Z,91.03
2023-01-22T04:51:27.961Z,91.35
2023-01-22T04:54:31.606Z,92.18
2023-01-22T04:57:36.749Z,90.50
2023-01-22T05:00:40.404Z,90.82
2023-01-22T05:03:45.196Z,89.96
2023-01-22T05:06:48.809Z,91.02
2023-01-22T05:09:53.209Z,93.30
2023-01-22T05:12:58.170Z,94.34
2023-01-22T05:16:02.693Z,94.40
2023-01-22T05:19:06.649Z,94.38
2023-01-22T05:22:10.360Z,95.06
2023-01-22T05:25:14.548Z,94.67
2023-01-22T05:28:19.753Z,94.04
2023-01-22T05:31:39.439Z,94.02
2023-01-22T05:34:47.757Z,94.06
2023-01-22T05:37:51.339Z,96.63
2023-01-22T05:40:56.426Z,94.43
2023-01-22T05:44:02.654Z,93.18
2023-01-22T05:47:06.591Z,91.84
2023-01-22T05:50:23.492Z,92.02
2023-01-22T05:53:38.146Z,91.89
2023-01-22T05:56:41.728Z,91.97
2023-01-22T05:59:46.696Z,93.12
2023-01-22T06:02:57.647Z,94.40
2023-01-22T06:06:01.951Z,94.08
2023-01-22T06:09:05.671Z,93.72
2023-01-22T06:12:13.381Z,100.00
2023-01-22T06:15:18.478Z,96.73
2023-01-22T06:18:29.435Z,95.06
2023-01-22T06:21:33.945Z,95.10
2023-01-22T06:24:37.945Z,93.40
2023-01-22T06:27:43.467Z,94.41
2023-01-22T06:30:48.778Z,93.66
2023-01-22T06:33:54.481Z,93.84
2023-01-22T06:36:58.302Z,94.00
2023-01-22T06:40:04.510Z,93.13
2023-01-22T06:43:17.981Z,93.98
2023-01-22T06:46:27.711Z,93.50
2023-01-22T06:49:37.676Z,93.92
2023-01-22T06:52:41.407Z,92.95
2023-01-22T06:55:45.334Z,92.73
2023-01-22T06:58:48.938Z,92.61
2023-01-22T07:01:54.215Z,92.05
2023-01-22T07:04:57.800Z,91.29
2023-01-22T07:08:01.395Z,91.86
2023-01-22T07:11:07.770Z,91.69
2023-01-22T07:14:11.511Z,91.27
2023-01-22T07:17:16.748Z,90.71
2023-01-22T07:20:20.559Z,90.95
2023-01-22T07:23:24.352Z,91.75
2023-01-22T07:26:27.925Z,90.62
2023-01-22T07:29:31.368Z,92.15
2023-01-22T07:32:37.207Z,92.24
2023-01-22T07:35:41.331Z,90.73
2023-01-22T07:38:45.087Z,90.95
2023-01-22T07:41:48.831Z,90.74
2023-01-22T07:44:54.629Z,91.45
2023-01-22T07:48:01.257Z,91.94
2023-01-22T07:51:07.548Z,92.31
2023-01-22T07:54:11.330Z,94.45
2023-01-22T07:57:16.901Z,92.32
2023-01-22T08:00:21.291Z,93.26
2023-01-22T08:03:26.569Z,93.59
2023-01-22T08:06:30.261Z,94.26
2023-01-22T08:09:34.210Z,93.35
2023-01-22T08:12:41.548Z,94.45
2023-01-22T08:15:45.559Z,93.79
2023-01-22T08:18:50.857Z,94.40
2023-01-22T08:21:54.473Z,95.51
2023-01-22T08:24:58.221Z,94.94
2023-01-22T08:28:05.199Z,95.98
2023-01-22T08:31:16.491Z,97.67
2023-01-22T08:34:28.182Z,95.39
2023-01-22T08:37:31.935Z,95.93
2023-01-22T08:40:37.792Z,96.83
2023-01-22T08:43:41.750Z,99.70
2023-01-22T08:46:45.550Z,95.47
2023-01-22T08:49:50.801Z,95.85
2023-01-22T08:52:54.581Z,95.46
2023-01-22T08:55:59.284Z,95.12
2023-01-22T08:59:06.859Z,94.51
2023-01-22T09:02:13.319Z,94.68
2023-01-22T09:05:18.745Z,95.04
2023-01-22T09:08:22.458Z,97.09
2023-01-22T09:11:26.215Z,96.27
2023-01-22T09:14:29.785Z,95.74
2023-01-22T09:17:33.621Z,95.45
2023-01-22T09:20:38.824Z,95.21
2023-01-22T09:23:42.552Z,95.05
2023-01-22T09:26:46.390Z,94.09
2023-01-22T09:29:50.084Z,92.48
2023-01-22T09:32:53.891Z,92.98
2023-01-22T09:36:08.287Z,93.23
2023-01-22T09:39:12.094Z,93.29
2023-01-22T09:42:20.380Z,92.46
2023-01-22T09:45:28.113Z,91.77
2023-01-22T09:48:38.131Z,91.79
2023-01-22T09:51:45.722Z,92.72
2023-01-22T09:54:49.471Z,93.90
2023-01-22T09:57:56.033Z,97.74
2023-01-22T10:01:04.667Z,96.89
2023-01-22T10:04:23.156Z,95.67
2023-01-22T10:07:33.671Z,96.45
2023-01-22T10:10:38.166Z,97.18
2023-01-22T10:13:42.090Z,99.46
2023-01-22T10:16:46.727Z,97.21
2023-01-22T10:19:53.876Z,96.93
2023-01-22T10:23:04.246Z,97.61
2023-01-22T10:26:15.811Z,97.38
2023-01-22T10:29:25.680Z,98.62
2023-01-22T10:32:30.920Z,98.01
2023-01-22T10:35:44.315Z,98.39
2023-01-22T10:38:49.561Z,98.72
2023-01-22T10:42:02.883Z,97.71
2023-01-22T10:45:13.422Z,99.36
2023-01-22T10:48:18.670Z,99.66
2023-01-22T10:51:27.674Z,96.71
2023-01-22T10:54:35.483Z,93.94
2023-01-22T10:57:40.131Z,92.18
2023-01-22T11:00:51.938Z,91.89
2023-01-22T11:03:56.300Z,89.46
2023-01-22T11:07:06.021Z,90.82
2023-01-22T11:10:20.757Z,90.66
2023-01-22T11:13:29.143Z,90.57
2023-01-22T11:16:37.567Z,89.48
2023-01-22T11:19:47.142Z,88.67
2023-01-22T11:23:07.344Z,89.29
2023-01-22T11:26:23.251Z,89.26
2023-01-22T11:29:47.232Z,87.83
2023-01-22T11:33:01.268Z,87.33
2023-01-22T11:36:11.371Z,88.62
2023-01-22T11:39:35.723Z,88.41
2023-01-22T11:42:55.761Z,88.45
2023-01-22T11:46:25.800Z,88.47
2023-01-22T11:49:42.393Z,89.55
2023-01-22T11:52:52.600Z,92.95
2023-01-22T11:56:21.480Z,92.59
2023-01-22T11:59:54.891Z,94.57
2023-01-22T12:03:45.569Z,94.61
2023-01-22T12:07:18.871Z,95.78
2023-01-22T12:10:47.952Z,96.44
2023-01-22T12:14:21.996Z,96.92
2023-01-22T12:17:42.820Z,97.79
2023-01-22T12:21:00.089Z,97.63
2023-01-22T12:24:09.581Z,97.28
2023-01-22T12:27:19.897Z,97.40
2023-01-22T12:30:28.834Z,98.90
2023-01-22T12:33:41.412Z,97.69
2023-01-22T12:36:46.641Z,97.87
2023-01-22T12:39:59.801Z,98.14
2023-01-22T12:43:04.657Z,98.70
2023-01-22T12:46:17.258Z,98.39
2023-01-22T12:49:22.414Z,98.23
2023-01-22T12:52:32.191Z,97.94
2023-01-22T12:55:38.352Z,97.30
2023-01-22T12:58:44.041Z,99.75
2023-01-22T13:01:48.014Z,97.79
2023-01-22T13:04:53.781Z,97.18
2023-01-22T13:08:04.516Z,99.22
2023-01-22T13:11:10.679Z,97.02
2023-01-22T13:14:22.761Z,96.35
2023-01-22T13:17:31.191Z,94.30
2023-01-22T13:20:39.272Z,94.28
2023-01-22T13:23:45.290Z,92.54
2023-01-22T13:26:54.763Z,93.30
2023-01-22T13:30:09.581Z,91.74
2023-01-22T13:33:15.432Z,91.87
2023-01-22T13:36:20.680Z,92.52
2023-01-22T13:39:28.385Z,93.02
2023-01-22T13:42:32.811Z,93.27
2023-01-22T13:45:36.631Z,94.21
2023-01-22T13:48:40.401Z,93.09
2023-01-22T13:51:45.712Z,93.05
2023-01-22T13:54:55.864Z,94.00
2023-01-22T13:58:01.872Z,93.83
2023-01-22T14:01:05.723Z,93.48
2023-01-22T14:04:37.280Z,94.29
2023-01-22T14:07:42.613Z,95.31
2023-01-22T14:10:46.292Z,94.91
2023-01-22T14:13:52.311Z,94.03
2023-01-22T14:16:56.111Z,94.83
2023-01-22T14:20:00.181Z,95.99
2023-01-22T14:23:05.420Z,95.08
2023-01-22T14:26:10.508Z,94.10
2023-01-22T14:29:14.151Z,93.99
2023-01-22T14:32:17.959Z,94.52
2023-01-22T14:35:26.840Z,94.65
2023-01-22T14:38:32.052Z,95.49
2023-01-22T14:41:35.940Z,94.34
2023-01-22T14:44:39.642Z,95.77
2023-01-22T14:47:43.374Z,95.75
2023-01-22T14:50:47.311Z,95.29
2023-01-22T14:53:52.421Z,96.53
2023-01-22T14:56:56.641Z,96.94
2023-01-22T15:00:02.005Z,96.87
2023-01-22T15:03:06.625Z,96.05
2023-01-22T15:06:10.782Z,95.17
2023-01-22T15:09:16.169Z,94.80
2023-01-22T15:12:20.001Z,94.11
2023-01-22T15:15:27.244Z,93.92
2023-01-22T15:18:31.101Z,94.67
2023-01-22T15:21:34.791Z,94.67
2023-01-22T15:24:40.261Z,94.66
2023-01-22T15:27:44.780Z,95.25
2023-01-22T15:30:50.999Z,94.99
2023-01-22T15:33:55.053Z,96.01
2023-01-22T15:36:58.922Z,94.96
2023-01-22T15:40:04.116Z,95.85
2023-01-22T15:43:08.025Z,97.03
2023-01-22T15:46:11.756Z,96.52
2023-01-22T15:49:15.476Z,95.87
2023-01-22T15:52:19.253Z,96.44
2023-01-22T15:55:24.412Z,96.73
2023-01-22T15:58:28.100Z,96.73
2023-01-22T16:01:32.362Z,96.49
2023-01-22T16:04:36.194Z,96.18
2023-01-22T16:07:39.915Z,96.11
2023-01-22T16:10:45.025Z,95.71
2023-01-22T16:13:49.420Z,95.73
2023-01-22T16:16:53.234Z,95.20
2023-01-22T16:19:56.938Z,94.50
2023-01-22T16:23:00.760Z,95.30
2023-01-22T16:26:09.663Z,96.19
2023-01-22T16:29:13.530Z,97.64
2023-01-22T16:32:17.406Z,98.58
2023-01-22T16:35:21.131Z,99.90
2023-01-22T16:38:24.805Z,100.00
2023-01-22T16:41:31.351Z,100.00
2023-01-22T16:44:34.907Z,99.76
2023-01-22T16:47:39.066Z,99.57
2023-01-22T16:50:42.822Z,98.27
2023-01-22T16:53:47.102Z,98.49
2023-01-22T16:56:52.825Z,98.87
2023-01-22T16:59:56.553Z,98.93
2023-01-22T17:03:00.478Z,98.84
2023-01-22T17:06:04.637Z,99.15
2023-01-22T17:09:09.044Z,99.48
2023-01-22T17:12:14.551Z,100.00
2023-01-22T17:15:19.572Z,100.00
2023-01-22T17:18:23.460Z,100.00
2023-01-22T17:21:28.802Z,99.88
2023-01-22T17:24:33.041Z,100.00
2023-01-22T17:27:39.925Z,100.00
2023-01-22T17:30:43.739Z,100.00
2023-01-22T17:33:48.040Z,100.00
2023-01-22T17:36:51.882Z,100.00
2023-01-22T17:39:55.651Z,100.00
2023-01-22T17:43:00.882Z,100.00
2023-01-22T17:46:09.010Z,100.00
2023-01-22T17:49:12.866Z,100.00
2023-01-22T17:52:18.008Z,100.00
2023-01-22T17:55:21.854Z,99.29
2023-01-22T17:58:27.070Z,99.23
2023-01-22T18:01:33.159Z,99.01
2023-01-22T18:04:37.474Z,97.67
2023-01-22T18:07:41.091Z,97.96
2023-01-22T18:10:44.759Z,98.50
2023-01-22T18:13:50.101Z,99.38
2023-01-22T18:16:53.851Z,98.96
2023-01-22T18:19:57.530Z,98.91
2023-01-22T18:23:01.340Z,99.49
2023-01-22T18:26:06.826Z,100.00
2023-01-22T18:29:12.900Z,100.00
2023-01-22T18:32:16.631Z,100.00
2023-01-22T18:35:20.604Z,99.48
2023-01-22T18:38:26.828Z,99.60
2023-01-22T18:41:31.324Z,99.87
2023-01-22T18:44:36.615Z,100.00
2023-01-22T18:47:40.399Z,100.00
2023-01-22T18:50:44.775Z,99.83
2023-01-22T18:53:48.564Z,100.00
2023-01-22T18:56:52.321Z,100.00
2023-01-22T18:59:57.552Z,99.32
2023-01-22T19:03:01.468Z,100.00
2023-01-22T19:06:13.515Z,100.00
2023-01-22T19:09:17.630Z,100.00
2023-01-22T19:12:21.819Z,99.35
2023-01-22T19:15:27.490Z,98.05
2023-01-22T19:18:31.229Z,97.66
2023-01-22T19:21:35.133Z,97.81
2023-01-22T19:24:38.843Z,96.79
2023-01-22T19:27:42.582Z,96.24
2023-01-22T19:30:47.823Z,96.76
2023-01-22T19:33:53.210Z,98.04
2023-01-22T19:37:00.620Z,99.51
2023-01-22T19:40:04.919Z,99.13
2023-01-22T19:43:09.329Z,100.00
2023-01-22T19:46:16.927Z,98.71
2023-01-22T19:49:20.744Z,98.78
2023-01-22T19:52:24.490Z,98.54
2023-01-22T19:55:29.878Z,97.68
2023-01-22T19:58:33.662Z,97.56
2023-01-22T20:01:39.921Z,98.23
2023-01-22T20:04:43.728Z,99.35
2023-01-22T20:07:47.561Z,100.00
2023-01-22T20:10:59.723Z,99.87
2023-01-22T20:14:03.892Z,99.67
2023-01-22T20:17:09.091Z,99.46
2023-01-22T20:20:13.670Z,99.77
2023-01-22T20:23:17.364Z,99.65
2023-01-22T20:26:22.417Z,100.00
2023-01-22T20:29:26.156Z,99.33
2023-01-22T20:32:31.460Z,98.25
2023-01-22T20:35:35.181Z,98.78
2023-01-22T20:38:39.432Z,98.22
2023-01-22T20:41:43.610Z,99.16
2023-01-22T20:44:47.631Z,100.00
2023-01-22T20:47:52.829Z,99.08
2023-01-22T20:50:56.521Z,98.94
2023-01-22T20:54:00.570Z,97.62
2023-01-22T20:57:04.341Z,97.44
2023-01-22T21:00:09.492Z,98.24
2023-01-22T21:03:14.666Z,98.02
2023-01-22T21:06:20.560Z,98.11
2023-01-22T21:09:24.231Z,98.82
2023-01-22T21:12:28.798Z,98.89
2023-01-22T21:15:33.753Z,98.93
2023-01-22T21:18:41.727Z,98.56
2023-01-22T21:21:45.574Z,97.82
2023-01-22T21:24:49.281Z,97.52
2023-01-22T21:27:52.963Z,97.48
2023-01-22T21:30:56.778Z,97.50
2023-01-22T21:34:04.304Z,96.82
2023-01-22T21:37:08.062Z,97.19
2023-01-22T21:40:13.932Z,98.29
2023-01-22T21:43:35.214Z,98.92
2023-01-22T21:46:42.254Z,98.89
2023-01-22T21:49:50.119Z,97.57
2023-01-22T21:52:55.171Z,99.68
2023-01-22T21:55:58.841Z,100.00
2023-01-22T21:59:02.902Z,100.00
2023-01-22T22:02:07.598Z,100.00
2023-01-22T22:05:13.385Z,100.00
2023-01-22T22:08:17.155Z,100.00
2023-01-22T22:11:21.063Z,100.00
2023-01-22T22:14:25.711Z,100.00
2023-01-22T22:17:29.525Z,100.00
2023-01-22T22:20:34.981Z,100.00
2023-01-22T22:23:39.347Z,100.00
2023-01-22T22:26:43.174Z,100.00
2023-01-22T22:29:46.840Z,100.00
2023-01-22T22:32:50.700Z,100.00
2023-01-22T22:35:55.931Z,100.00
2023-01-22T22:39:01.198Z,100.00
2023-01-22T22:42:05.033Z,100.00
2023-01-22T22:45:09.903Z,100.00
2023-01-22T22:48:13.567Z,100.00
2023-01-22T22:51:20.987Z,100.00
2023-01-22T22:54:24.743Z,100.00
2023-01-22T22:57:28.562Z,100.00
2023-01-22T23:00:32.303Z,100.00
2023-01-22T23:03:37.769Z,100.00
2023-01-22T23:06:45.453Z,100.00
2023-01-22T23:09:49.161Z,100.00
2023-01-22T23:12:52.932Z,100.00
2023-01-22T23:16:01.012Z,100.00
2023-01-22T23:19:06.753Z,100.00
2023-01-22T23:22:12.012Z,100.00
2023-01-22T23:25:15.732Z,100.00
2023-01-22T23:28:19.400Z,100.00
2023-01-22T23:31:23.328Z,100.00
2023-01-22T23:34:27.071Z,100.00
2023-01-22T23:37:32.215Z,100.00
2023-01-22T23:40:35.914Z,100.00
2023-01-22T23:43:39.658Z,100.00
2023-01-22T23:46:43.705Z,100.00
2023-01-22T23:49:47.317Z,100.00
2023-01-22T23:52:52.305Z,100.00
2023-01-22T23:55:59.667Z,100.00
2023-01-22T23:59:03.172Z,100.00
